Holstein, IA (51025)

8:21 AM CST on March 06, 2015 (GMT -0600)
Holstein Ag Services, LLC | Change Station
CLOSE
Current Station
Personal Weather Station
Location: Holstein, IA
Elevation: 1381 ft
Nearby Weather Stations

Elev 1381 ft 42.50 °N, 95.54 °W | Updated 31 seconds ago

Clear
Clear
26.2 °F
Feels Like 19 °F
N
7.0
Wind Variable Wind from WSW
Gusts 11.0 mph

Today
High -- | Low -- °F
--% Chance of Precip.
Yesterday
High -- | Low -- °F
Precip. -- in
6:49 AM 6:17 PM
Full, 99% visible
Pressure 30.14 in
Visibility 10.0 miles
Clouds Clear
Windchill 19 °F
Dew Point 18 °F
Humidity 70%
Rainfall in
Snow Depth Not available.
UV 1 out of 12
Pollen 2.30 out of 12
Air Quality Not available.
Flu Activity Not available.
METAR KCKP 061355Z AUTO 00000KT 10SM CLR M07/M11 A3014 RMK AO2 T10721109

More Conditions Fewer Conditions

Pressure 30.14 in
Visibility 10.0 miles
Clouds Clear
Windchill 19 °F
Dew Point 18 °F
Humidity 70%
Rainfall in
Snow Depth Not available.
UV 1 out of 12
Pollen 2.30 out of 12
Air Quality Not available.
Flu Activity Not available.
METAR KCKP 061355Z AUTO 00000KT 10SM CLR M07/M11 A3014 RMK AO2 T10721109

More Conditions Fewer Conditions

10-Day Weather Forecast

Almanac

Astronomy

Mar. 06, 2015 Rise Set
Actual Time
Civil Twilight
Nautical Twilight
Astronomical Twilight
Moon
Length of Visible Light
Length of Day
Tomorrow will be .
, % of the Moon is Illuminated

Today's Extremes

State Highs State Lows

Community

WunderPhotos

Upload Photos

1,803,282 photos uploaded!

WunderBlogs® & News

Nearby

Air Quality

  Air Quality AQ Index Pollutant
Not available.

Snow Depth

Station Depth Elevation

Earthquake Activity

City Distance Mag. Time & Date
Minimum magnitude displayed is 2.5.

Coastal Water Temperatures

Place Temperature

Nearby Weather Stations